ZBF weather

Bathurst Airport
Bathurst, New Brunswick, Canada

Public forecast

Using degrees Celsius for public forecast. Weather courtesy of forecast.io.

METAR (pilot weather report)

Retrieved 2019/04/25 13:10 UTC (34 minutes ago):

CZBF 251310Z AUTO 03008G16KT 9SM OVC013 M00/M02 A2995 RMK SLP147

TAF (pilot weather forecast)

Retrieved 2019/04/25 09:42 UTC (4 hours ago):

TAF CZBF 250838Z 2509/2521 04010G20KT 2SM -SN OVC006 TEMPO 2509/2515 6SM -SN SCT006 OVC012 FM251500 02012KT 3SM -SN SCT008 OVC015 FM251900 06008KT P6SM BKN015 OVC040 RMK FCST BASED ON AUTO OBS. NXT FCST BY 251400Z